Time;durP1;ratioP1;P1;durP2;ratioP2;P2;SDS_P1;SDS_P2;PMS_P1;PMS_P2;Temp;Humidity;BMP_temperature;BMP_pressure;BME280_temperature;BME280_humidity;BME280_pressure;Samples;Min_cycle;Max_cycle;Signal;HPM_P1;HPM_P2
2023/02/02 00:01:54;;;;;;;8.65;2.15;;;5.30;99.90;;;-144.05;81.96;125687.94;5010142;28;20042;-80
2023/02/02 00:04:32;;;;;;;8.23;1.88;;;5.30;99.90;;;-144.05;82.61;125687.94;4999058;28;20041;-79
2023/02/02 00:06:59;;;;;;;11.93;1.80;;;5.30;99.90;;;-144.05;82.23;125687.94;4978464;28;20031;-76
2023/02/02 00:09:29;;;;;;;6.70;1.95;;;5.30;99.90;;;-144.05;82.52;125687.94;4978604;28;20041;-78
2023/02/02 00:11:57;;;;;;;13.32;2.35;;;5.30;99.90;;;-144.05;82.32;125687.94;4977459;28;20090;-78
2023/02/02 00:14:23;;;;;;;6.30;1.67;;;5.30;99.90;;;-144.05;82.97;125687.94;4977605;28;20051;-77
2023/02/02 00:16:53;;;;;;;7.85;1.80;;;5.30;99.90;;;-144.05;83.22;125687.94;4979507;28;20029;-79
2023/02/02 00:19:30;;;;;;;8.48;2.63;;;5.30;99.90;;;-144.05;83.19;125687.94;4979019;28;20031;-78
2023/02/02 00:21:57;;;;;;;12.68;3.00;;;5.30;99.90;;;-144.05;83.01;125687.94;4979304;28;20110;-78
2023/02/02 00:24:23;;;;;;;7.72;2.00;;;5.20;99.90;;;-144.05;83.47;125687.94;4977887;28;20034;-79
2023/02/02 00:26:54;;;;;;;7.82;2.00;;;5.30;99.90;;;-144.05;83.63;125687.94;4978952;28;20065;-79
2023/02/02 00:29:30;;;;;;;8.63;1.83;;;5.30;99.90;;;-144.05;83.36;125687.94;4977308;28;20042;-80
2023/02/02 00:31:56;;;;;;;;;;;5.30;99.90;;;-144.05;83.50;125687.94;4978804;28;20034;-79
2023/02/02 00:34:23;;;;;;;9.63;1.77;;;5.30;99.90;;;-144.05;83.31;125687.94;4979192;28;19910;-78
2023/02/02 00:36:51;;;;;;;7.05;1.80;;;5.30;99.90;;;-144.05;83.67;125687.94;4978600;28;20035;-80
2023/02/02 00:39:24;;;;;;;6.78;1.98;;;5.30;99.90;;;-144.05;83.63;125687.94;4978611;28;20043;-77
2023/02/02 00:41:51;;;;;;;12.70;2.65;;;5.30;99.90;;;-144.05;84.08;125687.94;4978626;28;20053;-77
2023/02/02 00:47:02;;;;;;;11.75;2.55;;;5.30;99.90;;;-144.05;84.22;125687.94;4978071;28;20535;-77
2023/02/02 00:49:28;;;;;;;11.63;2.88;;;5.30;99.90;;;-144.05;83.91;125687.94;4976393;28;20125;-79
2023/02/02 00:51:54;;;;;;;12.07;2.47;;;5.30;99.90;;;-144.05;83.81;125687.94;4977874;28;20035;-78
2023/02/02 00:54:20;;;;;;;7.55;2.60;;;5.30;99.90;;;-144.05;83.54;125687.94;4976790;28;20022;-79
2023/02/02 00:56:45;;;;;;;13.27;3.38;;;5.30;99.90;;;-144.05;84.11;125687.94;4976892;28;20038;-79
2023/02/02 00:59:11;;;;;;;12.10;4.10;;;5.20;99.90;;;-144.05;84.39;125687.94;4977495;28;20038;-80
2023/02/02 01:01:38;;;;;;;13.52;4.20;;;5.20;99.90;;;-144.05;84.26;125687.94;4978006;28;20493;-75
2023/02/02 01:04:04;;;;;;;12.13;4.43;;;5.20;99.90;;;-144.05;84.37;125687.94;4973835;28;20089;-78
2023/02/02 01:06:30;;;;;;;14.75;5.07;;;5.20;99.90;;;-144.05;84.72;125687.94;4976170;28;20498;-77
2023/02/02 01:08:56;;;;;;;17.27;5.93;;;5.10;99.90;;;-144.05;84.83;125687.94;4974627;28;20039;-78
2023/02/02 01:11:24;;;;;;;11.63;5.90;;;5.10;99.90;;;-144.05;84.92;125687.94;4976780;28;20050;-78
2023/02/02 01:13:51;;;;;;;15.75;6.82;;;5.10;99.90;;;-144.05;84.86;125687.94;4977145;28;20081;-78
2023/02/02 01:16:17;;;;;;;23.48;7.45;;;5.10;99.90;;;-144.05;85.18;125687.94;4976329;28;20042;-76
2023/02/02 01:18:43;;;;;;;16.48;7.53;;;5.10;99.90;;;-144.05;84.92;125687.94;4975024;28;20027;-78
2023/02/02 01:21:11;;;;;;;18.23;7.50;;;5.10;99.90;;;-144.05;85.19;125687.94;4976604;28;20120;-79
2023/02/02 01:23:39;;;;;;;15.73;7.93;;;5.10;99.90;;;-144.05;84.99;125687.94;4976724;28;20134;-77
2023/02/02 01:26:11;;;;;;;13.50;6.72;;;5.20;99.90;;;-144.05;84.74;125687.94;4976793;28;20026;-78
2023/02/02 01:28:38;;;;;;;16.02;8.00;;;5.20;99.90;;;-144.05;85.07;125687.94;4975655;28;20027;-79
2023/02/02 01:31:15;;;;;;;14.63;5.88;;;5.30;99.90;;;-144.05;85.12;125687.94;4975519;28;20054;-79
2023/02/02 01:33:44;;;;;;;18.85;6.20;;;5.30;99.90;;;-144.05;84.87;125687.94;4976268;28;20027;-77
2023/02/02 01:36:18;;;;;;;17.13;6.10;;;5.40;99.90;;;-144.05;85.11;125687.94;4976890;28;20033;-77
2023/02/02 01:38:45;;;;;;;11.48;5.63;;;5.40;99.90;;;-144.05;85.22;125687.94;4976563;28;20057;-77
2023/02/02 01:41:20;;;;;;;12.43;5.47;;;5.40;99.90;;;-144.05;84.94;125687.94;4977034;28;20162;-78
2023/02/02 01:43:46;;;;;;;16.98;5.75;;;5.40;99.90;;;-144.05;84.82;125687.94;4974951;28;20558;-79
2023/02/02 01:46:33;;;;;;;13.02;5.65;;;5.40;99.90;;;-144.05;84.96;125687.94;4977210;28;20066;-77
2023/02/02 01:49:19;;;;;;;12.52;5.70;;;5.50;99.90;;;-144.05;85.07;125687.94;4977106;28;20061;-78
2023/02/02 01:51:59;;;;;;;11.25;5.40;;;5.50;99.90;;;-144.05;85.21;125687.94;4976453;28;20030;-78
2023/02/02 01:54:39;;;;;;;16.85;6.43;;;5.60;99.90;;;-144.05;84.99;125687.94;4977266;28;20118;-78
2023/02/02 01:57:27;;;;;;;18.90;6.00;;;5.60;99.90;;;-144.05;84.96;125687.94;4975372;28;20105;-78
2023/02/02 01:59:59;;;;;;;10.75;4.82;;;5.60;99.90;;;-144.05;84.79;125687.94;4976043;28;20034;-79
2023/02/02 02:02:28;;;;;;;11.70;5.22;;;5.70;99.90;;;-144.05;84.77;125687.94;4974739;28;20030;-79
2023/02/02 02:04:55;;;;;;;16.15;5.40;;;5.70;99.90;;;-144.05;84.66;125687.94;4976144;28;20551;-80
2023/02/02 02:07:22;;;;;;;10.18;5.47;;;5.70;99.90;;;-144.05;85.12;125687.94;4978035;28;20026;-78
2023/02/02 02:09:48;;;;;;;13.38;5.93;;;5.80;99.90;;;-144.05;84.81;125687.94;4977326;28;20026;-79
2023/02/02 02:12:15;;;;;;;18.00;5.53;;;5.80;99.90;;;-144.05;84.63;125687.94;4977611;28;20023;-79
2023/02/02 02:18:12;;;;;;;15.07;6.18;;;5.80;99.90;;;-144.05;85.39;57046.38;4977647;28;20073;-80
2023/02/02 02:27:16;;;;;;;14.57;6.72;;;5.90;99.90;;;-144.05;85.32;57018.75;4974660;28;20089;-78
2023/02/02 02:30:38;;;;;;;24.52;7.30;;;6.00;99.90;;;-144.05;85.79;57042.13;4974279;28;20026;-79
2023/02/02 02:33:17;;;;;;;20.75;7.95;;;6.00;99.90;;;-144.05;85.75;57025.13;4974434;28;20026;-80
2023/02/02 02:36:24;;;;;;;29.23;9.80;;;6.10;99.90;;;-144.05;85.74;57018.75;4973757;28;20023;-79
2023/02/02 02:39:16;;;;;;;25.75;9.90;;;6.10;99.90;;;-144.05;85.26;57020.88;4973323;28;20114;-79
2023/02/02 02:41:51;;;;;;;29.67;9.88;;;6.10;99.90;;;-144.05;85.39;57023.00;4974187;28;20149;-77
2023/02/02 02:44:20;;;;;;;24.35;9.63;;;6.20;99.90;;;-144.05;85.29;57027.25;4975543;28;20078;-78
2023/02/02 02:46:49;;;;;;;23.48;10.35;;;6.20;99.90;;;-144.05;85.80;57027.25;4977213;28;20058;-78
2023/02/02 02:49:16;;;;;;;21.73;10.88;;;6.30;99.90;;;-144.05;85.73;57006.00;4976130;28;20026;-79
2023/02/02 02:51:51;;;;;;;30.67;10.65;;;6.30;99.90;;;-144.05;85.49;57050.63;4977095;28;20051;-81
2023/02/02 02:54:50;;;;;;;25.17;11.95;;;6.30;99.90;;;-144.05;85.55;57003.88;4977970;28;20054;-79
2023/02/02 02:57:54;;;;;;;34.90;11.82;;;6.30;99.90;;;-144.05;85.77;57033.63;4977000;28;20410;-79
2023/02/02 03:00:47;;;;;;;26.98;11.05;;;6.40;99.90;;;-144.05;85.40;57008.13;4976506;28;20159;-79
2023/02/02 03:03:50;;;;;;;27.95;10.60;;;6.40;99.90;;;-144.05;85.49;57023.00;4977655;28;20506;-79
2023/02/02 03:06:30;;;;;;;22.08;10.02;;;6.40;99.90;;;-144.05;86.02;57020.88;4975808;28;20081;-79
2023/02/02 03:09:10;;;;;;;27.95;11.77;;;6.40;99.90;;;-144.05;85.30;57006.00;4977392;28;20070;-79
2023/02/02 03:11:36;;;;;;;21.88;9.93;;;6.40;99.90;;;-144.05;85.76;57012.38;4977878;28;20113;-78
2023/02/02 03:14:05;;;;;;;24.73;9.23;;;6.40;99.90;;;-144.05;85.36;57006.00;4976591;28;20029;-80
2023/02/02 03:16:31;;;;;;;28.33;10.48;;;6.50;99.90;;;-144.05;85.61;56997.50;4976948;28;20445;-80
2023/02/02 03:18:57;;;;;;;24.38;9.77;;;6.50;99.90;;;-144.05;84.90;57014.50;4977566;28;20089;-79
2023/02/02 03:21:23;;;;;;;27.58;9.63;;;6.40;99.90;;;-144.05;85.26;57016.63;4977906;28;20027;-79
2023/02/02 03:23:49;;;;;;;22.38;7.93;;;6.40;99.90;;;-144.05;85.00;57018.75;4976917;28;20295;-79
2023/02/02 03:26:15;;;;;;;22.15;7.28;;;6.50;99.90;;;-144.05;84.89;57018.75;4977362;28;20062;-80
2023/02/02 03:28:41;;;;;;;22.63;7.55;;;6.40;99.90;;;-144.05;84.79;57023.00;4976945;28;20395;-79
2023/02/02 03:31:07;;;;;;;27.70;7.00;;;6.40;99.90;;;-144.05;84.90;57027.25;4980866;28;20081;-79
2023/02/02 03:33:37;;;;;;;20.85;7.00;;;6.40;99.90;;;-144.05;84.03;57020.88;4980399;28;20117;-79
2023/02/02 03:36:04;;;;;;;14.73;5.60;;;6.40;99.90;;;-144.05;84.16;57014.50;4980456;28;20403;-78
2023/02/02 03:38:30;;;;;;;19.88;5.35;;;6.30;99.90;;;-144.05;84.26;57012.38;4975817;28;20030;-77
2023/02/02 03:40:56;;;;;;;17.63;4.57;;;6.30;99.90;;;-144.05;84.24;57020.88;4977730;28;20201;-78
2023/02/02 03:43:24;;;;;;;17.20;4.65;;;6.30;99.90;;;-144.05;83.75;57012.38;4976920;28;20090;-79
2023/02/02 03:46:03;;;;;;;19.95;5.00;;;6.40;99.90;;;-144.05;83.76;57033.63;4978326;28;20035;-79
2023/02/02 03:48:30;;;;;;;11.65;3.65;;;6.30;99.90;;;-144.05;83.14;57037.88;4979895;28;20321;-79
2023/02/02 03:50:57;;;;;;;16.08;4.05;;;6.30;99.90;;;-144.05;83.27;57018.75;4978994;28;20038;-79
2023/02/02 03:53:23;;;;;;;17.50;3.85;;;6.20;99.90;;;-144.05;83.41;57020.88;4980026;28;20019;-79
2023/02/02 03:55:49;;;;;;;10.23;3.40;;;6.30;99.90;;;-144.05;83.21;56997.50;4979696;28;20037;-79
2023/02/02 03:58:16;;;;;;;10.93;2.55;;;6.30;99.90;;;-144.05;83.94;57031.50;4978136;28;20031;-79
2023/02/02 04:00:42;;;;;;;15.02;3.22;;;6.20;99.90;;;-144.05;83.84;57018.75;4980173;28;20037;-79
2023/02/02 04:03:08;;;;;;;7.65;2.50;;;6.20;99.90;;;-144.05;83.55;57033.63;4979878;28;20040;-80
2023/02/02 04:05:34;;;;;;;8.57;2.38;;;6.20;99.90;;;-144.05;83.86;57050.63;4988678;28;20208;-79
2023/02/02 04:08:00;;;;;;;9.55;2.78;;;6.20;99.90;;;-144.05;83.24;57014.50;4994333;28;20058;-80
2023/02/02 04:10:25;;;;;;;12.48;2.42;;;6.10;99.90;;;-144.05;84.14;57027.25;4987065;28;20034;-80
2023/02/02 04:12:51;;;;;;;10.25;2.53;;;6.10;99.90;;;-144.05;84.11;57003.88;4980065;28;20031;-80
2023/02/02 04:15:17;;;;;;;9.10;2.80;;;6.20;99.90;;;-144.05;84.26;57006.00;4978922;28;20027;-80
2023/02/02 04:17:43;;;;;;;12.70;3.08;;;6.20;99.90;;;-144.05;85.26;57012.38;4980374;28;20152;-79
2023/02/02 04:20:10;;;;;;;13.98;3.58;;;6.20;99.90;;;-144.05;85.36;57012.38;4978755;28;20077;-80
2023/02/02 04:22:36;;;;;;;13.00;3.60;;;6.20;99.90;;;-144.05;85.74;57029.38;4978536;28;20110;-79
2023/02/02 04:25:02;;;;;;;10.52;2.90;;;6.20;99.90;;;-144.05;85.31;57020.88;4978680;28;20343;-79
2023/02/02 04:27:31;;;;;;;13.43;3.67;;;6.20;99.90;;;-144.05;86.24;57012.38;4978882;28;20537;-79
2023/02/02 04:29:57;;;;;;;8.45;3.42;;;6.20;99.90;;;-144.05;86.50;57006.00;4978700;28;20062;-79
2023/02/02 04:32:23;;;;;;;14.65;3.17;;;6.20;99.90;;;-144.05;85.67;57033.63;4980006;28;20054;-78
2023/02/02 04:34:48;;;;;;;13.20;3.97;;;6.20;99.90;;;-144.05;86.21;57044.25;4978521;28;20062;-76
2023/02/02 04:37:14;;;;;;;13.73;3.75;;;6.20;99.90;;;-144.05;86.37;57044.25;4979829;28;20074;-78
2023/02/02 04:39:40;;;;;;;13.63;4.57;;;6.20;99.90;;;-144.05;86.55;57027.25;4977150;28;20134;-78
2023/02/02 04:42:06;;;;;;;9.88;3.83;;;6.20;99.90;;;-144.05;86.59;57001.75;4978196;28;20038;-77
2023/02/02 04:44:32;;;;;;;11.23;4.63;;;6.20;99.90;;;-144.05;86.49;57023.00;4979307;28;20192;-78
2023/02/02 04:46:58;;;;;;;11.57;4.50;;;6.20;99.90;;;-144.05;86.15;57001.75;4978489;28;20038;-76
2023/02/02 04:49:24;;;;;;;11.43;5.63;;;6.20;99.90;;;-144.05;86.33;57040.00;4982315;28;20046;-79
2023/02/02 04:51:49;;;;;;;16.40;5.80;;;6.20;99.90;;;-144.05;86.63;57006.00;4979685;28;20280;-79
2023/02/02 04:54:15;;;;;;;14.65;6.65;;;6.20;99.90;;;-144.05;86.43;57044.25;4978318;28;20541;-78
2023/02/02 04:56:41;;;;;;;16.15;7.90;;;6.20;99.90;;;-144.05;86.94;57031.50;4976746;28;20031;-78
2023/02/02 04:59:07;;;;;;;19.25;9.60;;;6.20;99.90;;;-144.05;87.43;57023.00;4977358;28;20125;-78
2023/02/02 05:01:33;;;;;;;24.75;9.95;;;6.20;99.90;;;-144.05;86.89;57018.75;4977472;28;20475;-79
2023/02/02 05:03:58;;;;;;;19.15;10.55;;;6.20;99.90;;;-144.05;86.70;57008.13;4977866;28;20086;-77
2023/02/02 05:06:24;;;;;;;21.80;12.18;;;6.20;99.90;;;-144.05;87.05;57027.25;4978498;28;20406;-79
2023/02/02 05:08:50;;;;;;;23.05;12.68;;;6.30;99.90;;;-144.05;87.65;57023.00;4978573;28;20038;-80
2023/02/02 05:11:22;;;;;;;27.40;14.73;;;6.30;99.90;;;-144.05;87.78;57033.63;4978539;28;20030;-79
2023/02/02 05:13:52;;;;;;;28.45;15.63;;;6.40;99.90;;;-144.05;87.27;57006.00;4977261;28;20065;-80
2023/02/02 05:16:19;;;;;;;35.97;15.52;;;6.40;99.90;;;-144.05;87.02;57031.50;4977258;28;20038;-77
2023/02/02 05:18:55;;;;;;;44.03;19.80;;;6.40;99.90;;;-144.05;87.50;57029.38;4976045;28;20109;-77
2023/02/02 05:21:22;;;;;;;44.53;20.35;;;6.40;99.90;;;-144.05;87.86;57040.00;4976119;28;20026;-77
2023/02/02 05:23:48;;;;;;;44.10;21.20;;;6.40;99.90;;;-144.05;87.72;57014.50;4977223;28;20042;-78
2023/02/02 05:26:21;;;;;;;50.65;22.85;;;6.40;99.90;;;-144.05;88.00;57012.38;4977255;28;20038;-76
2023/02/02 05:28:47;;;;;;;46.50;22.02;;;6.50;99.90;;;-144.05;87.49;57040.00;4977648;28;20042;-78
2023/02/02 05:31:14;;;;;;;50.30;22.48;;;6.50;99.90;;;-144.05;87.54;56995.38;4977806;28;20045;-79
2023/02/02 05:33:40;;;;;;;48.67;21.45;;;6.60;99.90;;;-144.05;87.53;57027.25;4976576;28;20029;-80
2023/02/02 05:36:07;;;;;;;53.83;21.77;;;6.60;99.90;;;-144.05;86.87;57003.88;4977646;28;20102;-78
2023/02/02 05:38:33;;;;;;;55.38;20.88;;;6.60;99.90;;;-144.05;86.19;56999.63;4976822;28;20030;-79
2023/02/02 05:41:01;;;;;;;54.95;19.48;;;6.60;99.90;;;-144.05;86.94;57042.13;4979116;28;20034;-78
2023/02/02 05:43:31;;;;;;;51.45;17.83;;;6.60;99.90;;;-144.05;86.67;57016.63;4977904;28;20100;-79
2023/02/02 05:45:57;;;;;;;44.90;17.85;;;6.70;99.90;;;-144.05;86.07;57008.13;4978709;28;20038;-78
2023/02/02 05:48:23;;;;;;;44.33;17.92;;;6.70;99.90;;;-144.05;86.29;57033.63;4977781;28;20031;-80
2023/02/02 05:51:13;;;;;;;42.03;16.88;;;6.70;99.90;;;-144.05;86.22;57014.50;4977132;28;20038;-80
2023/02/02 05:53:38;;;;;;;44.20;16.77;;;6.80;99.90;;;-144.05;85.24;57003.88;4978414;28;20034;-79
2023/02/02 05:58:32;;;;;;;43.10;17.52;;;6.80;99.90;;;-144.05;85.61;57001.75;5031572;28;20053;-79
2023/02/02 06:00:58;;;;;;;48.15;17.33;;;6.80;99.90;;;-144.05;85.74;56995.38;5034362;28;20028;-78
2023/02/02 06:03:24;;;;;;;42.97;15.93;;;6.80;99.90;;;-144.05;84.81;56989.00;5034737;28;20433;-78
2023/02/02 06:05:50;;;;;;;39.35;15.65;;;6.90;99.90;;;-144.05;85.02;57014.50;5034906;28;20032;-78
2023/02/02 06:08:16;;;;;;;39.55;14.40;;;6.80;99.90;;;-144.05;85.49;57014.50;5034765;28;20610;-80
2023/02/02 06:10:41;;;;;;;38.92;14.20;;;6.80;99.90;;;-144.05;85.14;56997.50;5017250;28;20412;-81
2023/02/02 06:13:08;;;;;;;37.95;14.13;;;6.80;99.90;;;-144.05;85.31;57016.63;5033972;28;20504;-80
2023/02/02 06:15:35;;;;;;;36.30;13.30;;;6.90;99.90;;;-144.05;85.66;56989.00;5033313;28;20029;-80
2023/02/02 06:18:01;;;;;;;35.00;14.52;;;6.90;99.90;;;-144.05;85.60;57014.50;5032719;28;20033;-79
2023/02/02 06:20:28;;;;;;;34.15;14.55;;;6.90;99.90;;;-144.05;85.24;57027.25;5033674;28;20032;-79
2023/02/02 06:22:54;;;;;;;33.92;14.32;;;6.80;99.90;;;-144.05;85.12;57006.00;5034200;28;20041;-79
2023/02/02 06:25:20;;;;;;;41.90;14.93;;;6.80;99.90;;;-144.05;85.17;57006.00;5015457;28;20404;-80
2023/02/02 06:27:45;;;;;;;40.67;13.75;;;6.90;99.90;;;-144.05;85.35;57012.38;5016082;28;20088;-80
2023/02/02 06:30:12;;;;;;;33.63;13.77;;;6.90;99.90;;;-144.05;84.97;57010.25;5034245;28;20024;-80
2023/02/02 06:32:38;;;;;;;40.30;15.40;;;6.90;99.90;;;-144.05;84.92;57023.00;5033582;28;20017;-79
2023/02/02 06:35:06;;;;;;;33.78;14.05;;;6.90;99.90;;;-144.05;85.19;57018.75;5033698;28;20028;-80
2023/02/02 06:37:33;;;;;;;42.38;14.60;;;6.90;99.90;;;-144.05;85.88;57014.50;5015560;28;20029;-80
2023/02/02 06:39:59;;;;;;;37.70;14.55;;;6.90;99.90;;;-144.05;85.06;57001.75;5015578;28;20186;-79
2023/02/02 06:42:25;;;;;;;45.85;14.55;;;6.90;99.90;;;-144.05;85.45;57014.50;5034474;28;20041;-77
2023/02/02 06:44:51;;;;;;;34.78;14.25;;;6.90;99.90;;;-144.05;85.10;57025.13;5034874;28;20025;-80
2023/02/02 06:47:16;;;;;;;34.80;13.90;;;6.90;99.90;;;-144.05;84.86;57006.00;5016885;28;20036;-80
2023/02/02 06:49:42;;;;;;;34.45;13.00;;;6.90;99.90;;;-144.05;85.34;56997.50;5035394;28;20021;-80
2023/02/02 06:52:08;;;;;;;38.28;12.95;;;6.90;99.90;;;-144.05;85.41;57029.38;5036041;28;20033;-78
2023/02/02 06:54:34;;;;;;;38.38;14.32;;;7.00;99.90;;;-144.05;85.34;57014.50;5036210;28;20137;-80
2023/02/02 06:57:00;;;;;;;33.50;14.23;;;6.90;99.90;;;-144.05;85.22;57003.88;5016825;28;20088;-80
2023/02/02 06:59:26;;;;;;;38.00;13.85;;;6.90;99.90;;;-144.05;85.31;57006.00;5036059;28;20057;-80
2023/02/02 07:01:51;;;;;;;35.53;14.20;;;6.90;99.90;;;-144.05;85.80;57050.63;5016808;28;20378;-81
2023/02/02 07:04:18;;;;;;;38.05;14.20;;;6.90;99.90;;;-144.05;85.57;57040.00;5037664;28;20052;-82
2023/02/02 07:06:44;;;;;;;38.85;15.52;;;6.90;99.90;;;-144.05;85.59;57006.00;5020437;28;20048;-81
2023/02/02 07:09:10;;;;;;;35.60;14.38;;;7.00;99.90;;;-144.05;85.47;57003.88;5036172;28;20472;-78
2023/02/02 07:11:36;;;;;;;31.80;13.80;;;6.90;99.90;;;-144.05;85.13;56997.50;5036278;28;20059;-77
2023/02/02 07:14:04;;;;;;;36.22;14.43;;;6.90;99.90;;;-144.05;84.98;57012.38;5036496;28;20094;-79
2023/02/02 07:16:30;;;;;;;34.80;13.95;;;6.90;99.90;;;-144.05;85.71;56989.00;5018146;28;20026;-78
2023/02/02 07:18:57;;;;;;;35.20;14.18;;;6.90;99.90;;;-144.05;86.07;56997.50;5036289;28;20021;-77
2023/02/02 07:21:28;;;;;;;30.17;14.07;;;6.90;99.90;;;-144.05;85.80;56995.38;5018011;28;20053;-77
2023/02/02 07:23:54;;;;;;;29.23;14.18;;;6.90;99.90;;;-144.05;85.76;57012.38;5035929;28;20025;-80
2023/02/02 07:26:20;;;;;;;27.92;13.45;;;6.90;99.90;;;-144.05;85.72;56997.50;5035955;28;20025;-81
2023/02/02 07:28:46;;;;;;;36.58;15.63;;;6.90;99.90;;;-144.05;85.62;56976.28;5017718;28;20489;-79
2023/02/02 07:31:25;;;;;;;32.03;14.43;;;6.90;99.90;;;-144.05;86.34;57027.25;5035762;28;20030;-79
2023/02/02 07:33:53;;;;;;;33.30;14.20;;;7.00;99.90;;;-144.05;86.05;56991.13;5035640;28;20026;-81
2023/02/02 07:36:23;;;;;;;30.52;14.10;;;6.90;99.90;;;-144.05;86.67;57016.63;5018260;28;20527;-79
2023/02/02 07:38:56;;;;;;;31.50;13.85;;;6.90;99.90;;;-144.05;85.86;57016.63;5017522;28;20456;-80
2023/02/02 07:41:23;;;;;;;38.28;15.02;;;7.00;99.90;;;-144.05;85.82;57027.25;5035767;28;20053;-78
2023/02/02 07:43:50;;;;;;;28.00;14.05;;;6.90;99.90;;;-144.05;85.49;57008.13;5035591;28;20035;-80
2023/02/02 07:46:18;;;;;;;32.72;14.32;;;7.00;99.90;;;-144.05;85.88;56997.50;5017770;28;20057;-78
2023/02/02 07:48:45;;;;;;;33.22;13.35;;;7.00;99.90;;;-144.05;85.71;56997.50;5035328;28;20065;-79
2023/02/02 07:51:16;;;;;;;37.88;14.05;;;7.00;99.90;;;-144.05;85.79;57020.88;5035345;28;20182;-80
2023/02/02 07:53:46;;;;;;;29.33;13.63;;;7.00;99.90;;;-144.05;86.02;57010.25;5035622;28;20040;-79
2023/02/02 07:56:20;;;;;;;33.72;14.02;;;7.00;99.90;;;-144.05;85.77;57027.25;5017290;28;20026;-80
2023/02/02 07:58:47;;;;;;;34.83;14.25;;;7.00;99.90;;;-144.05;85.46;57001.75;5035256;28;20029;-78
2023/02/02 08:01:15;;;;;;;30.42;13.57;;;7.00;99.90;;;-144.05;85.74;56993.25;5035396;28;20456;-79
2023/02/02 08:03:43;;;;;;;39.13;13.85;;;7.10;99.90;;;-144.05;85.68;56991.13;5018865;28;20073;-78
2023/02/02 08:06:23;;;;;;;26.80;12.70;;;7.10;99.90;;;-144.05;85.11;57027.25;5020302;28;20033;-81
2023/02/02 08:08:50;;;;;;;33.53;14.88;;;7.10;99.90;;;-144.05;85.16;56997.50;5021431;28;20036;-79
2023/02/02 08:11:22;;;;;;;34.40;14.05;;;7.10;99.90;;;-144.05;85.16;57023.00;5040616;28;20040;-80
2023/02/02 08:13:52;;;;;;;34.95;13.32;;;7.10;99.90;;;-144.05;85.43;57008.13;5038355;28;20025;-81
2023/02/02 08:16:19;;;;;;;32.33;14.10;;;7.10;99.90;;;-144.05;85.22;57014.50;5039508;28;20034;-79
2023/02/02 08:18:46;;;;;;;33.55;16.33;;;7.10;99.90;;;-144.05;85.42;57012.38;5038979;28;20083;-80
2023/02/02 08:21:12;;;;;;;31.85;13.35;;;7.10;99.90;;;-144.05;85.30;57010.25;5019047;28;20238;-81
2023/02/02 08:23:41;;;;;;;35.47;13.50;;;7.10;99.90;;;-144.05;85.06;56997.50;5018497;28;20030;-81
2023/02/02 08:26:17;;;;;;;31.58;14.52;;;7.10;99.90;;;-144.05;85.29;56997.50;5018016;28;20434;-80
2023/02/02 08:28:48;;;;;;;26.85;14.13;;;7.10;99.90;;;-144.05;85.36;57008.13;5035710;28;20440;-81
2023/02/02 08:31:20;;;;;;;34.17;13.90;;;7.10;99.90;;;-144.05;86.09;56984.78;5036424;28;20041;-80
2023/02/02 08:33:46;;;;;;;34.90;14.68;;;7.20;99.90;;;-144.05;85.62;57003.88;5036792;28;20180;-80
2023/02/02 08:36:20;;;;;;;41.90;15.07;;;7.20;99.90;;;-144.05;85.21;57012.38;5036463;28;20076;-81
2023/02/02 08:38:47;;;;;;;35.08;14.63;;;7.20;99.90;;;-144.05;85.47;57033.63;5048120;28;20067;-78
2023/02/02 08:41:20;;;;;;;38.95;14.98;;;7.20;99.90;;;-144.05;85.87;57033.63;5022106;28;20435;-80
2023/02/02 08:43:46;;;;;;;27.42;12.82;;;7.20;99.90;;;-144.05;85.49;57027.25;5036795;28;20033;-80
2023/02/02 08:46:17;;;;;;;37.53;14.43;;;7.20;99.90;;;-144.05;85.59;57012.38;5018709;28;20030;-81
2023/02/02 08:48:44;;;;;;;28.95;14.38;;;7.20;99.90;;;-144.05;85.47;57003.88;5035853;28;20026;-81
2023/02/02 08:51:14;;;;;;;26.83;13.73;;;7.20;99.90;;;-144.05;85.06;57012.38;5035942;28;20440;-81
2023/02/02 08:53:42;;;;;;;25.02;13.68;;;7.20;99.90;;;-144.05;85.80;57012.38;5018552;28;20017;-81
2023/02/02 08:56:18;;;;;;;32.75;14.18;;;7.20;99.90;;;-144.05;85.90;56999.63;5039242;28;20103;-79
2023/02/02 08:58:57;;;;;;;28.80;14.35;;;7.20;99.90;;;-144.05;86.37;57010.25;5025372;28;20037;-79
2023/02/02 09:01:31;;;;;;;31.63;14.52;;;7.30;99.90;;;-144.05;85.95;57020.88;5043888;28;20080;-78
2023/02/02 09:04:04;;;;;;;31.13;14.95;;;7.20;99.90;;;-144.05;86.12;57003.88;5026856;28;20255;-78
2023/02/02 09:06:39;;;;;;;26.08;14.80;;;7.30;99.90;;;-144.05;86.07;56980.53;5045136;28;20044;-80
2023/02/02 09:09:11;;;;;;;25.13;14.30;;;7.30;99.90;;;-144.05;85.64;57001.75;5034678;28;20051;-80
2023/02/02 09:11:39;;;;;;;25.55;14.38;;;7.30;99.90;;;-144.05;86.14;56995.38;5034568;28;20292;-79
2023/02/02 09:14:06;;;;;;;29.00;15.57;;;7.30;99.90;;;-144.05;86.09;57003.88;5034557;28;20036;-80
2023/02/02 09:16:34;;;;;;;23.25;14.45;;;7.30;99.90;;;-144.05;86.34;57010.25;5034544;28;20033;-81
2023/02/02 09:19:01;;;;;;;32.20;15.98;;;7.30;99.90;;;-144.05;86.16;57006.00;5034111;28;20053;-80
2023/02/02 09:21:27;;;;;;;27.45;14.02;;;7.30;99.90;;;-144.05;85.93;57003.88;5016988;28;20032;-80
2023/02/02 09:23:53;;;;;;;24.88;14.63;;;7.30;99.90;;;-144.05;86.21;57003.88;5034789;28;20420;-81
2023/02/02 09:26:27;;;;;;;26.98;14.15;;;7.30;99.90;;;-144.05;85.86;57003.88;5017274;28;20036;-80
2023/02/02 09:29:02;;;;;;;26.00;14.52;;;7.30;99.90;;;-144.05;86.28;57025.13;5035461;28;20037;-80
2023/02/02 09:31:33;;;;;;;28.48;13.82;;;7.30;99.90;;;-144.05;86.02;57008.13;5017517;28;20053;-80
2023/02/02 09:34:10;;;;;;;22.67;12.48;;;7.30;99.90;;;-144.05;86.72;57001.75;5035765;28;20029;-80
2023/02/02 09:36:38;;;;;;;18.77;11.98;;;7.30;99.90;;;-144.05;86.80;57012.38;5038571;28;20026;-85
2023/02/02 09:39:06;;;;;;;22.30;12.45;;;7.40;99.90;;;-144.05;85.89;57023.00;5018642;28;20493;-83
2023/02/02 09:42:06;;;;;;;18.83;11.20;;;7.40;99.90;;;-144.05;85.64;56997.50;5018599;28;20385;-85
2023/02/02 09:44:59;;;;;;;23.15;11.30;;;7.40;99.90;;;-144.05;85.39;57016.63;5019254;28;20021;-83
2023/02/02 09:47:46;;;;;;;19.48;12.00;;;7.40;99.90;;;-144.05;85.37;56974.16;5019093;28;20496;-85
2023/02/02 09:50:48;;;;;;;17.70;10.90;;;7.40;99.90;;;-144.05;85.32;57003.88;5019293;28;20037;-84
2023/02/02 09:53:49;;;;;;;34.15;20.40;;;7.40;99.90;;;-144.05;85.74;56989.00;5019096;28;20097;-83
2023/02/02 09:56:39;;;;;;;30.55;18.65;;;7.40;99.90;;;-144.05;85.79;57006.00;5019823;28;20022;-82
2023/02/02 09:59:26;;;;;;;29.83;17.15;;;7.50;99.90;;;-144.05;85.64;57014.50;5019573;28;20052;-84
2023/02/02 10:02:00;;;;;;;;;;;7.50;99.90;;;-144.05;85.80;57001.75;5020146;28;20083;-82
2023/02/02 10:04:47;;;;;;;21.25;11.27;;;7.50;99.90;;;-144.05;85.92;57012.38;5019579;28;19933;-84
2023/02/02 10:07:26;;;;;;;17.33;11.82;;;7.50;99.90;;;-144.05;85.91;57018.75;5037679;28;20025;-84
2023/02/02 10:10:28;;;;;;;19.23;11.43;;;7.50;99.90;;;-144.05;85.94;56976.28;5019147;28;20029;-84
2023/02/02 10:13:20;;;;;;;17.48;11.35;;;7.50;99.90;;;-144.05;85.89;57008.13;5018269;28;20029;-84
2023/02/02 10:16:16;;;;;;;19.73;11.25;;;7.50;99.90;;;-144.05;86.07;57027.25;5018196;28;20095;-83
2023/02/02 10:19:01;;;;;;;20.98;11.52;;;7.50;99.90;;;-144.05;86.16;56997.50;5018403;28;20084;-84
2023/02/02 10:21:53;;;;;;;22.05;11.15;;;7.40;99.90;;;-144.05;86.51;56999.63;5036763;28;20412;-83
2023/02/02 10:24:25;;;;;;;18.23;10.73;;;7.50;99.90;;;-144.05;86.39;56995.38;5018600;28;20040;-81
2023/02/02 10:27:04;;;;;;;18.05;11.45;;;7.40;99.90;;;-144.05;86.75;56997.50;5018516;28;20033;-85
2023/02/02 10:29:51;;;;;;;21.17;11.50;;;7.50;99.90;;;-144.05;86.99;57023.00;5035951;28;20156;-83
2023/02/02 10:32:33;;;;;;;;;;;7.40;99.90;;;-144.05;86.47;57008.13;5018208;28;20478;-84
2023/02/02 10:35:35;;;;;;;24.13;12.68;;;7.40;99.90;;;-144.05;87.06;57014.50;5035940;28;19916;-84